Time;durP1;ratioP1;P1;durP2;ratioP2;P2;SDS_P1;SDS_P2;PMS_P1;PMS_P2;Temp;Humidity;BMP_temperature;BMP_pressure;BME280_temperature;BME280_humidity;BME280_pressure;Samples;Min_cycle;Max_cycle;Signal;HPM_P1;HPM_P2
2022/03/09 17:56:25;;;;;;;;;6.00;5.00;;;;;14.31;35.83;99075.97;4245726;22;1678478;-54
2022/03/09 17:58:52;;;;;;;;;4.50;3.50;;;;;14.33;35.74;99079.31;6182966;22;102182;-55
2022/03/09 18:01:22;;;;;;;;;6.00;5.00;;;;;14.32;35.84;99081.19;6157789;22;109256;-55
2022/03/09 18:03:50;;;;;;;;;4.00;4.00;;;;;14.32;35.24;99090.41;6176178;22;102435;-55
2022/03/09 18:06:18;;;;;;;;;6.50;5.00;;;;;14.30;35.96;99086.03;6128247;22;102096;-55
2022/03/09 18:08:47;;;;;;;;;5.00;3.25;;;;;14.30;35.91;99093.34;6145496;22;102367;-55
2022/03/09 18:11:16;;;;;;;;;3.25;3.25;;;;;14.27;35.18;99085.63;6176249;22;102987;-55
2022/03/09 18:14:00;;;;;;;;;4.75;4.00;;;;;14.26;35.54;99086.66;6133978;22;103535;-56
2022/03/09 18:16:27;;;;;;;;;5.75;4.75;;;;;14.24;35.46;99084.13;6148472;22;102167;-55
2022/03/09 18:18:59;;;;;;;;;4.50;4.50;;;;;14.20;35.55;99091.06;6131973;22;102473;-56
2022/03/09 18:21:26;;;;;;;;;6.00;5.00;;;;;14.21;35.36;99081.84;6136999;22;104028;-55
2022/03/09 18:23:53;;;;;;;;;5.00;4.00;;;;;14.21;35.34;99090.00;6137760;22;101809;-55
2022/03/09 18:26:21;;;;;;;;;4.00;4.00;;;;;14.16;35.66;99087.09;6178399;22;102025;-55
2022/03/09 18:28:48;;;;;;;;;4.50;4.50;;;;;14.15;35.45;99090.84;5984030;22;103585;-55
2022/03/09 18:31:15;;;;;;;;;8.25;5.25;;;;;14.16;36.05;99097.13;6140265;22;104000;-55
2022/03/09 18:33:43;;;;;;;;;5.50;5.50;;;;;14.15;35.41;99093.56;6174060;22;103030;-55
2022/03/09 18:36:11;;;;;;;;;4.00;3.75;;;;;14.15;35.77;99100.88;6056460;22;102143;-55
2022/03/09 18:38:40;;;;;;;;;5.25;5.00;;;;;14.13;35.49;99092.97;6132269;22;102162;-55
2022/03/09 18:41:07;;;;;;;;;5.75;5.00;;;;;14.13;35.66;99103.84;6180283;22;105565;-56
2022/03/09 18:43:35;;;;;;;;;6.00;4.25;;;;;14.10;35.69;99096.09;6162053;22;102905;-56
2022/03/09 18:46:02;;;;;;;;;5.50;5.50;;;;;14.09;35.15;99097.16;6155818;22;103149;-55
2022/03/09 18:48:30;;;;;;;;;3.75;3.00;;;;;14.08;35.18;99105.50;6166077;22;102586;-54
2022/03/09 18:50:57;;;;;;;;;5.00;5.00;;;;;14.04;36.25;99105.09;6186009;22;104208;-55
2022/03/09 18:53:24;;;;;;;;;5.00;4.00;;;;;14.04;36.18;99115.16;6177147;22;102136;-55
2022/03/09 18:55:51;;;;;;;;;5.00;4.75;;;;;14.04;36.02;99110.53;6184800;22;102391;-55
2022/03/09 18:58:24;;;;;;;;;5.25;5.00;;;;;14.03;35.71;99124.34;6181477;22;102136;-54
2022/03/09 19:00:52;;;;;;;;;2.00;2.00;;;;;14.00;36.35;99109.28;6151341;22;104007;-55
2022/03/09 19:03:19;;;;;;;;;4.75;4.75;;;;;13.99;35.42;99128.53;6147249;22;101878;-54
2022/03/09 19:05:46;;;;;;;;;5.25;4.00;;;;;13.97;35.55;99122.44;6129652;22;102076;-55
2022/03/09 19:08:15;;;;;;;;;7.00;5.00;;;;;13.95;35.84;99124.56;6153476;22;102314;-55
2022/03/09 19:10:45;;;;;;;;;6.25;3.25;;;;;13.96;36.13;99129.78;6142747;22;103984;-55
2022/03/09 19:13:12;;;;;;;;;4.50;4.50;;;;;13.86;35.55;99113.06;6110324;22;101997;-55
2022/03/09 19:15:40;;;;;;;;;7.50;5.25;;;;;13.93;35.89;99119.31;6140758;22;102277;-54
2022/03/09 19:18:07;;;;;;;;;5.25;4.75;;;;;13.93;35.56;99135.63;6076400;22;102323;-55
2022/03/09 19:20:34;;;;;;;;;7.75;5.25;;;;;13.94;35.62;99133.75;6094563;22;103124;-55
2022/03/09 19:23:02;;;;;;;;;6.00;5.00;;;;;13.91;35.75;99132.31;6167365;22;102213;-55
2022/03/09 19:25:29;;;;;;;;;6.00;5.00;;;;;13.91;35.44;99143.19;6148026;22;102129;-55
2022/03/09 19:27:56;;;;;;;;;4.75;4.00;;;;;13.89;36.31;99137.09;6174371;22;102406;-55
2022/03/09 19:30:23;;;;;;;;;4.50;4.50;;;;;13.87;35.99;99141.09;6163650;22;104038;-54
2022/03/09 19:32:51;;;;;;;;;7.75;5.75;;;;;13.88;35.60;99142.75;6149461;22;102396;-54
2022/03/09 19:35:18;;;;;;;;;5.50;4.25;;;;;13.84;36.16;99140.44;6178987;22;102471;-55
2022/03/09 19:37:45;;;;;;;;;6.50;5.00;;;;;13.84;35.72;99142.31;6154621;22;102348;-55
2022/03/09 19:40:14;;;;;;;;;4.50;4.50;;;;;13.75;36.10;99138.13;6176919;22;104023;-55
2022/03/09 19:42:42;;;;;;;;;5.00;4.75;;;;;13.81;35.86;99159.91;6168860;22;102219;-55
2022/03/09 19:45:09;;;;;;;;;5.00;5.00;;;;;13.80;36.58;99160.09;6141136;22;104980;-55
2022/03/09 19:47:36;;;;;;;;;4.00;3.75;;;;;13.79;36.57;99158.41;6165860;22;103940;-56
2022/03/09 19:50:04;;;;;;;;;6.00;4.00;;;;;13.77;36.08;99163.25;6157371;22;103724;-54
2022/03/09 19:52:33;;;;;;;;;6.50;6.00;;;;;13.76;35.76;99167.84;6149103;22;102166;-55
2022/03/09 19:55:00;;;;;;;;;7.25;6.50;;;;;13.76;36.42;99161.56;6147299;22;102674;-54
2022/03/09 19:57:27;;;;;;;;;5.00;5.00;;;;;13.77;36.57;99168.69;6172062;22;102629;-55
2022/03/09 19:59:56;;;;;;;;;6.50;4.25;;;;;13.74;36.05;99169.91;6167102;22;104120;-52
2022/03/09 20:02:24;;;;;;;;;8.00;6.00;;;;;13.73;35.94;99168.22;6149968;22;104970;-52
2022/03/09 20:04:51;;;;;;;;;5.25;4.00;;;;;13.74;36.12;99169.06;6169303;22;102445;-52
2022/03/09 20:07:18;;;;;;;;;5.00;5.00;;;;;13.74;35.95;99169.06;6161342;22;102188;-52
2022/03/09 20:09:45;;;;;;;;;4.00;4.00;;;;;13.72;36.55;99173.91;6188085;22;104015;-52
2022/03/09 20:12:12;;;;;;;;;5.25;5.25;;;;;13.73;36.14;99183.72;6191078;22;102069;-52
2022/03/09 20:14:39;;;;;;;;;4.00;4.00;;;;;13.72;36.58;99187.47;6146512;22;103854;-52
2022/03/09 20:17:06;;;;;;;;;7.00;6.25;;;;;13.72;36.64;99187.47;6170149;22;102114;-52
2022/03/09 20:19:33;;;;;;;;;6.50;5.25;;;;;13.69;36.68;99194.16;6189913;22;103988;-52
2022/03/09 20:22:04;;;;;;;;;5.75;5.00;;;;;13.70;36.23;99184.97;6150759;22;102127;-52
2022/03/09 20:24:31;;;;;;;;;5.25;4.75;;;;;13.68;36.14;99192.50;6175102;22;102140;-52
2022/03/09 20:26:59;;;;;;;;;8.75;5.00;;;;;13.68;35.71;99192.50;6183744;22;102546;-52
2022/03/09 20:29:27;;;;;;;;;10.00;6.00;;;;;13.67;36.47;99190.81;6137964;22;104225;-52
2022/03/09 20:31:55;;;;;;;;;6.75;6.00;;;;;13.66;36.54;99193.72;6175217;22;104029;-52
2022/03/09 20:34:23;;;;;;;;;6.25;5.00;;;;;13.64;35.79;99202.13;6190428;22;102515;-52
2022/03/09 20:36:50;;;;;;;;;8.00;5.00;;;;;13.61;35.98;99205.22;6146293;22;101937;-52
2022/03/09 20:39:17;;;;;;;;;6.00;5.25;;;;;13.61;35.93;99202.50;6171157;22;104384;-52
2022/03/09 20:41:44;;;;;;;;;4.50;4.50;;;;;13.62;35.96;99204.19;6176634;22;103824;-52
2022/03/09 20:44:11;;;;;;;;;7.25;6.00;;;;;13.62;36.42;99208.78;6141513;22;102194;-52
2022/03/09 20:46:38;;;;;;;;;9.00;6.50;;;;;13.62;36.16;99206.06;6171734;22;102503;-52
2022/03/09 20:49:06;;;;;;;;;8.00;6.50;;;;;13.63;36.29;99221.34;6166516;22;104121;-52
2022/03/09 20:51:33;;;;;;;;;4.75;4.50;;;;;13.60;36.03;99214.41;6161354;22;102258;-55
2022/03/09 20:54:01;;;;;;;;;6.25;5.75;;;;;13.59;36.54;99226.34;6152284;22;102431;-55
2022/03/09 20:56:29;;;;;;;;;6.00;5.00;;;;;13.60;35.97;99228.00;6185379;22;102167;-55
2022/03/09 20:58:57;;;;;;;;;7.00;5.00;;;;;13.59;36.08;99226.34;6152040;22;103976;-55
2022/03/09 21:01:24;;;;;;;;;5.75;5.25;;;;;13.59;36.76;99226.34;6173454;22;102298;-54
2022/03/09 21:03:52;;;;;;;;;5.00;5.00;;;;;13.58;35.86;99223.81;6162132;22;102315;-55
2022/03/09 21:06:20;;;;;;;;;7.75;6.00;;;;;13.59;35.98;99225.50;6160972;22;102146;-55
2022/03/09 21:08:48;;;;;;;;;5.25;5.00;;;;;13.58;35.71;99238.25;6162088;22;105194;-55
2022/03/09 21:11:23;;;;;;;;;4.75;4.00;;;;;13.59;36.17;99225.50;6141264;22;102146;-55
2022/03/09 21:13:51;;;;;;;;;5.75;5.50;;;;;13.57;36.05;99242.00;6188344;22;102502;-55
2022/03/09 21:16:20;;;;;;;;;5.00;4.75;;;;;13.56;36.62;99236.75;6186112;22;102529;-54
2022/03/09 21:18:51;;;;;;;;;5.00;5.00;;;;;13.55;36.29;99244.09;6182961;22;104068;-54
2022/03/09 21:21:22;;;;;;;;;7.50;6.00;;;;;13.54;36.66;99244.28;6157791;22;102542;-55
2022/03/09 21:23:49;;;;;;;;;6.00;5.00;;;;;13.53;36.37;99239.91;6161007;22;111800;-54
2022/03/09 21:26:17;;;;;;;;;5.75;5.50;;;;;13.52;35.91;99246.38;6161565;22;102211;-54
2022/03/09 21:28:44;;;;;;;;;8.50;5.25;;;;;13.52;35.92;99243.66;6183722;22;102890;-55
2022/03/09 21:31:11;;;;;;;;;5.75;5.00;;;;;13.52;36.51;99239.06;6170436;22;102509;-55
2022/03/09 21:33:39;;;;;;;;;3.25;3.00;;;;;13.53;36.41;99240.75;6158962;22;101952;-55
2022/03/09 21:36:06;;;;;;;;;5.50;4.25;;;;;13.52;36.36;99246.38;6187751;22;102460;-54
2022/03/09 21:38:33;;;;;;;;;4.50;4.00;;;;;13.51;36.79;99248.25;6163382;22;103200;-52
2022/03/09 21:41:00;;;;;;;;;6.25;5.75;;;;;13.51;36.70;99250.16;6184327;22;102225;-52
2022/03/09 21:43:27;;;;;;;;;5.50;5.50;;;;;13.50;36.51;99246.59;6159084;22;102028;-52
2022/03/09 21:45:54;;;;;;;;;7.25;5.50;;;;;13.51;35.92;99247.44;6187158;22;110856;-52
2022/03/09 21:48:22;;;;;;;;;6.00;5.00;;;;;13.51;36.42;99250.16;6185956;22;103679;-52
2022/03/09 21:50:49;;;;;;;;;5.00;4.75;;;;;13.50;36.91;99248.47;6177730;22;102571;-52
2022/03/09 21:53:17;;;;;;;;;5.50;4.25;;;;;13.50;35.90;99253.91;6190750;22;102288;-52
2022/03/09 21:55:45;;;;;;;;;5.50;4.50;;;;;13.48;36.78;99251.38;6187513;22;102157;-52
2022/03/09 21:58:12;;;;;;;;;8.00;6.00;;;;;13.48;36.94;99261.41;6172626;22;103963;-52
2022/03/09 22:00:40;;;;;;;;;6.25;5.50;;;;;13.48;36.56;99266.84;6174613;22;102306;-52
2022/03/09 22:03:08;;;;;;;;;4.25;4.00;;;;;13.47;36.95;99274.16;6165457;22;102302;-52
2022/03/09 22:05:35;;;;;;;;;5.00;4.00;;;;;13.47;36.54;99276.03;6173336;22;102049;-53
2022/03/09 22:08:02;;;;;;;;;5.25;4.25;;;;;13.45;36.76;99278.97;6185655;22;103940;-52
2022/03/09 22:10:29;;;;;;;;;7.75;6.00;;;;;13.45;36.99;99281.69;6177011;22;102215;-52
2022/03/09 22:12:57;;;;;;;;;4.25;4.25;;;;;13.40;36.14;99276.00;6175756;22;102239;-52
2022/03/09 22:15:25;;;;;;;;;7.25;5.00;;;;;13.45;36.16;99275.41;6179048;22;102461;-52
2022/03/09 22:17:52;;;;;;;;;5.50;4.00;;;;;13.43;35.98;99272.88;6178455;22;103405;-52
2022/03/09 22:20:19;;;;;;;;;3.75;2.00;;;;;13.43;36.92;99278.31;6176858;22;102165;-52
2022/03/09 22:22:47;;;;;;;;;3.50;3.50;;;;;13.44;36.06;99279.16;6174765;22;101923;-52
2022/03/09 22:25:14;;;;;;;;;4.00;4.00;;;;;13.42;37.05;99278.53;6170087;22;101975;-52
2022/03/09 22:27:42;;;;;;;;;5.25;4.25;;;;;13.43;36.86;99285.63;6181701;22;103943;-52
2022/03/09 22:30:10;;;;;;;;;5.50;3.75;;;;;13.43;36.98;99286.47;6178269;22;102252;-52
2022/03/09 22:32:37;;;;;;;;;5.00;4.00;;;;;13.41;36.84;99294.00;6171974;22;101908;-53
2022/03/09 22:35:04;;;;;;;;;4.50;4.50;;;;;13.39;35.96;99302.34;6174357;22;102043;-52
2022/03/09 22:37:31;;;;;;;;;5.00;4.00;;;;;13.37;36.44;99304.41;6169239;22;103923;-52
2022/03/09 22:39:58;;;;;;;;;5.50;5.00;;;;;13.39;36.60;99310.47;6144889;22;103028;-52
2022/03/09 22:42:25;;;;;;;;;3.25;3.25;;;;;13.39;36.96;99318.63;6175461;22;102648;-52
2022/03/09 22:44:53;;;;;;;;;6.00;4.00;;;;;13.37;36.70;99317.97;6178814;22;102009;-52
2022/03/09 22:47:20;;;;;;;;;4.25;4.00;;;;;13.38;36.75;99321.53;6158094;22;104044;-52
2022/03/09 22:49:47;;;;;;;;;4.25;4.00;;;;;13.39;36.07;99323.22;6167299;22;102549;-52
2022/03/09 22:52:16;;;;;;;;;4.00;4.00;;;;;13.38;36.40;99326.97;6188838;22;102182;-52
2022/03/09 22:54:43;;;;;;;;;4.50;3.75;;;;;13.36;36.55;99334.50;6193257;22;101972;-52
2022/03/09 22:57:11;;;;;;;;;5.00;4.00;;;;;13.34;36.92;99331.13;6173472;22;103999;-52
2022/03/09 22:59:38;;;;;;;;;6.00;5.00;;;;;13.34;36.97;99326.53;6170997;22;102128;-52
2022/03/09 23:02:05;;;;;;;;;5.00;3.50;;;;;13.34;36.36;99336.56;6173262;22;102385;-52
2022/03/09 23:04:33;;;;;;;;;4.00;3.25;;;;;13.33;36.72;99329.44;6178034;22;102273;-52
2022/03/09 23:07:00;;;;;;;;;4.25;4.25;;;;;13.33;36.59;99337.59;6174453;22;104105;-52
2022/03/09 23:09:27;;;;;;;;;5.00;4.00;;;;;13.31;37.21;99337.81;6172401;22;101989;-54
2022/03/09 23:11:54;;;;;;;;;5.25;4.00;;;;;13.32;36.19;99350.38;6179828;22;102134;-55
2022/03/09 23:14:23;;;;;;;;;5.25;3.75;;;;;13.17;37.09;99318.94;6157490;22;102115;-55
2022/03/09 23:16:50;;;;;;;;;4.75;4.75;;;;;13.32;37.25;99360.38;6156459;22;103994;-55
2022/03/09 23:19:17;;;;;;;;;4.00;3.00;;;;;13.29;36.57;99361.63;6187664;22;102411;-55
2022/03/09 23:21:44;;;;;;;;;4.25;4.00;;;;;13.29;36.73;99363.47;6185632;22;102461;-55
2022/03/09 23:24:11;;;;;;;;;4.25;4.25;;;;;13.30;37.19;99363.28;6157926;22;102218;-55
2022/03/09 23:26:38;;;;;;;;;4.50;2.50;;;;;13.27;36.49;99363.72;6189830;22;104145;-55
2022/03/09 23:29:06;;;;;;;;;5.75;4.00;;;;;13.28;36.19;99359.94;6188237;22;102061;-55
2022/03/09 23:31:33;;;;;;;;;4.50;3.75;;;;;13.26;36.78;99378.31;6144651;22;102252;-55
2022/03/09 23:34:00;;;;;;;;;6.00;4.50;;;;;13.26;36.45;99372.03;6185652;22;102408;-54
2022/03/09 23:36:29;;;;;;;;;5.00;4.00;;;;;13.26;36.60;99366.63;6177723;22;104036;-55
2022/03/09 23:38:56;;;;;;;;;3.00;3.00;;;;;13.26;36.50;99378.31;6178269;22;102284;-55
2022/03/09 23:41:23;;;;;;;;;5.00;4.00;;;;;13.25;36.57;99383.94;6177040;22;102645;-55
2022/03/09 23:43:50;;;;;;;;;3.50;3.25;;;;;13.24;36.69;99379.53;6181944;22;102625;-55
2022/03/09 23:46:17;;;;;;;;;5.00;3.00;;;;;13.23;36.58;99384.16;6176449;22;103775;-55
2022/03/09 23:48:44;;;;;;;;;2.75;2.00;;;;;13.25;36.94;99384.78;6170862;22;102301;-55
2022/03/09 23:51:11;;;;;;;;;2.75;2.75;;;;;13.25;36.40;99390.22;6183065;22;102514;-55
2022/03/09 23:53:38;;;;;;;;;4.75;3.75;;;;;13.24;37.28;99388.53;6184647;22;102065;-56
2022/03/09 23:56:05;;;;;;;;;3.75;3.00;;;;;13.23;36.84;99400.44;6173876;22;104022;-55
2022/03/09 23:58:35;;;;;;;;;4.75;2.50;;;;;13.23;37.31;99400.44;6147335;22;102312;-54
